sensor_id;sensor_type;location;lat;lon;timestamp;temperature;humidity
73570;SHT30;61850;54.980;73.298;2022-10-16T00:01:12;10.13;68.62
73570;SHT30;61850;54.980;73.298;2022-10-16T00:03:38;10.10;68.51
73570;SHT30;61850;54.980;73.298;2022-10-16T00:06:05;10.09;68.64
73570;SHT30;61850;54.980;73.298;2022-10-16T00:08:37;10.10;68.61
73570;SHT30;61850;54.980;73.298;2022-10-16T00:11:04;10.10;68.64
73570;SHT30;61850;54.980;73.298;2022-10-16T00:13:31;10.03;68.81
73570;SHT30;61850;54.980;73.298;2022-10-16T00:15:57;9.95;69.35
73570;SHT30;61850;54.980;73.298;2022-10-16T00:18:24;9.87;69.75
73570;SHT30;61850;54.980;73.298;2022-10-16T00:20:50;9.78;69.86
73570;SHT30;61850;54.980;73.298;2022-10-16T00:23:16;9.70;70.52
73570;SHT30;61850;54.980;73.298;2022-10-16T00:25:42;9.65;70.50
73570;SHT30;61850;54.980;73.298;2022-10-16T00:28:08;9.67;70.09
73570;SHT30;61850;54.980;73.298;2022-10-16T00:30:37;9.70;70.14
73570;SHT30;61850;54.980;73.298;2022-10-16T00:33:10;9.68;69.79
73570;SHT30;61850;54.980;73.298;2022-10-16T00:35:36;9.64;69.98
73570;SHT30;61850;54.980;73.298;2022-10-16T00:38:03;9.58;70.38
73570;SHT30;61850;54.980;73.298;2022-10-16T00:40:30;9.60;70.53
73570;SHT30;61850;54.980;73.298;2022-10-16T00:43:13;9.54;70.34
73570;SHT30;61850;54.980;73.298;2022-10-16T00:45:40;9.51;69.91
73570;SHT30;61850;54.980;73.298;2022-10-16T00:51:02;9.44;70.75
73570;SHT30;61850;54.980;73.298;2022-10-16T00:53:29;9.40;70.95
73570;SHT30;61850;54.980;73.298;2022-10-16T00:56:05;9.43;70.92
73570;SHT30;61850;54.980;73.298;2022-10-16T00:58:34;9.36;71.17
73570;SHT30;61850;54.980;73.298;2022-10-16T01:01:07;9.34;71.22
73570;SHT30;61850;54.980;73.298;2022-10-16T01:03:34;9.27;71.40
73570;SHT30;61850;54.980;73.298;2022-10-16T01:11:34;9.27;70.42
73570;SHT30;61850;54.980;73.298;2022-10-16T01:14:06;9.23;70.62
73570;SHT30;61850;54.980;73.298;2022-10-16T01:16:44;9.26;70.58
73570;SHT30;61850;54.980;73.298;2022-10-16T01:25:30;9.19;70.64
73570;SHT30;61850;54.980;73.298;2022-10-16T01:28:02;9.23;69.90
73570;SHT30;61850;54.980;73.298;2022-10-16T01:30:31;9.20;69.70
73570;SHT30;61850;54.980;73.298;2022-10-16T01:33:05;9.20;69.51
73570;SHT30;61850;54.980;73.298;2022-10-16T01:35:46;9.23;69.32
73570;SHT30;61850;54.980;73.298;2022-10-16T01:41:15;9.31;68.95
73570;SHT30;61850;54.980;73.298;2022-10-16T01:43:43;9.33;68.95
73570;SHT30;61850;54.980;73.298;2022-10-16T01:46:11;9.29;69.03
73570;SHT30;61850;54.980;73.298;2022-10-16T01:48:38;9.27;68.75
73570;SHT30;61850;54.980;73.298;2022-10-16T01:54:25;9.30;68.76
73570;SHT30;61850;54.980;73.298;2022-10-16T01:56:53;9.24;68.68
73570;SHT30;61850;54.980;73.298;2022-10-16T01:59:20;9.20;68.59
73570;SHT30;61850;54.980;73.298;2022-10-16T02:01:48;9.26;68.31
73570;SHT30;61850;54.980;73.298;2022-10-16T02:04:22;9.19;68.63
73570;SHT30;61850;54.980;73.298;2022-10-16T02:06:49;9.19;68.28
73570;SHT30;61850;54.980;73.298;2022-10-16T02:09:15;9.20;68.39
73570;SHT30;61850;54.980;73.298;2022-10-16T02:11:42;9.22;68.01
73570;SHT30;61850;54.980;73.298;2022-10-16T02:14:09;9.23;68.05
73570;SHT30;61850;54.980;73.298;2022-10-16T02:16:42;9.22;67.73
73570;SHT30;61850;54.980;73.298;2022-10-16T02:19:11;9.20;67.80
73570;SHT30;61850;54.980;73.298;2022-10-16T02:21:40;9.27;67.76
73570;SHT30;61850;54.980;73.298;2022-10-16T02:26:52;9.27;67.82
73570;SHT30;61850;54.980;73.298;2022-10-16T02:29:21;9.31;67.82
73570;SHT30;61850;54.980;73.298;2022-10-16T02:31:49;9.34;67.26
73570;SHT30;61850;54.980;73.298;2022-10-16T02:34:16;9.39;66.96
73570;SHT30;61850;54.980;73.298;2022-10-16T02:36:44;9.36;66.96
73570;SHT30;61850;54.980;73.298;2022-10-16T02:39:16;9.39;66.70
73570;SHT30;61850;54.980;73.298;2022-10-16T02:41:42;9.39;66.43
73570;SHT30;61850;54.980;73.298;2022-10-16T02:44:09;9.40;66.43
73570;SHT30;61850;54.980;73.298;2022-10-16T02:46:40;9.40;66.44
73570;SHT30;61850;54.980;73.298;2022-10-16T02:49:08;9.46;66.08
73570;SHT30;61850;54.980;73.298;2022-10-16T02:51:40;9.48;65.81
73570;SHT30;61850;54.980;73.298;2022-10-16T02:54:07;9.54;65.69
73570;SHT30;61850;54.980;73.298;2022-10-16T02:56:33;9.51;65.86
73570;SHT30;61850;54.980;73.298;2022-10-16T02:59:07;9.51;65.71
73570;SHT30;61850;54.980;73.298;2022-10-16T03:01:42;9.54;65.66
73570;SHT30;61850;54.980;73.298;2022-10-16T03:04:09;9.54;65.69
73570;SHT30;61850;54.980;73.298;2022-10-16T03:06:46;9.61;65.68
73570;SHT30;61850;54.980;73.298;2022-10-16T03:09:13;9.68;65.56
73570;SHT30;61850;54.980;73.298;2022-10-16T03:11:39;9.74;65.54
73570;SHT30;61850;54.980;73.298;2022-10-16T03:14:05;9.79;65.37
73570;SHT30;61850;54.980;73.298;2022-10-16T03:16:31;9.79;64.91
73570;SHT30;61850;54.980;73.298;2022-10-16T03:18:57;9.87;64.35
73570;SHT30;61850;54.980;73.298;2022-10-16T03:21:28;9.82;64.20
73570;SHT30;61850;54.980;73.298;2022-10-16T03:23:55;9.89;64.05
73570;SHT30;61850;54.980;73.298;2022-10-16T03:26:21;9.89;63.65
73570;SHT30;61850;54.980;73.298;2022-10-16T03:28:47;9.92;63.60
73570;SHT30;61850;54.980;73.298;2022-10-16T03:31:22;10.01;63.76
73570;SHT30;61850;54.980;73.298;2022-10-16T03:33:49;10.02;63.71
73570;SHT30;61850;54.980;73.298;2022-10-16T03:36:16;10.06;63.30
73570;SHT30;61850;54.980;73.298;2022-10-16T03:38:47;10.13;63.08
73570;SHT30;61850;54.980;73.298;2022-10-16T03:41:18;10.12;63.00
73570;SHT30;61850;54.980;73.298;2022-10-16T03:43:44;10.20;63.00
73570;SHT30;61850;54.980;73.298;2022-10-16T03:46:10;10.26;62.66
73570;SHT30;61850;54.980;73.298;2022-10-16T03:48:36;10.30;62.39
73570;SHT30;61850;54.980;73.298;2022-10-16T03:51:03;10.29;62.59
73570;SHT30;61850;54.980;73.298;2022-10-16T03:53:29;10.39;62.18
73570;SHT30;61850;54.980;73.298;2022-10-16T03:55:55;10.49;62.30
73570;SHT30;61850;54.980;73.298;2022-10-16T03:58:22;10.46;62.57
73570;SHT30;61850;54.980;73.298;2022-10-16T04:00:49;10.46;62.41
73570;SHT30;61850;54.980;73.298;2022-10-16T04:03:16;10.63;62.65
73570;SHT30;61850;54.980;73.298;2022-10-16T04:05:44;10.68;62.69
73570;SHT30;61850;54.980;73.298;2022-10-16T04:08:10;10.77;62.02
73570;SHT30;61850;54.980;73.298;2022-10-16T04:10:36;10.87;62.52
73570;SHT30;61850;54.980;73.298;2022-10-16T04:13:06;10.91;62.82
73570;SHT30;61850;54.980;73.298;2022-10-16T04:15:32;10.95;63.02
73570;SHT30;61850;54.980;73.298;2022-10-16T04:18:03;11.01;62.55
73570;SHT30;61850;54.980;73.298;2022-10-16T04:20:29;11.11;62.89
73570;SHT30;61850;54.980;73.298;2022-10-16T04:22:55;11.16;62.19
73570;SHT30;61850;54.980;73.298;2022-10-16T04:25:23;11.31;61.48
73570;SHT30;61850;54.980;73.298;2022-10-16T04:27:49;11.39;60.02
73570;SHT30;61850;54.980;73.298;2022-10-16T04:30:15;11.45;59.84
73570;SHT30;61850;54.980;73.298;2022-10-16T04:32:41;11.55;60.64
73570;SHT30;61850;54.980;73.298;2022-10-16T04:35:07;11.56;60.54
73570;SHT30;61850;54.980;73.298;2022-10-16T04:37:39;11.70;60.59
73570;SHT30;61850;54.980;73.298;2022-10-16T04:40:05;11.72;60.57
73570;SHT30;61850;54.980;73.298;2022-10-16T04:42:32;11.79;60.61
73570;SHT30;61850;54.980;73.298;2022-10-16T04:44:58;11.84;60.50
73570;SHT30;61850;54.980;73.298;2022-10-16T04:47:24;12.01;60.44
73570;SHT30;61850;54.980;73.298;2022-10-16T04:49:50;12.10;60.08
73570;SHT30;61850;54.980;73.298;2022-10-16T04:52:25;12.34;59.26
73570;SHT30;61850;54.980;73.298;2022-10-16T04:55:02;12.44;58.97
73570;SHT30;61850;54.980;73.298;2022-10-16T04:57:29;12.65;58.59
73570;SHT30;61850;54.980;73.298;2022-10-16T05:00:04;12.90;58.05
73570;SHT30;61850;54.980;73.298;2022-10-16T05:02:30;13.07;57.50
73570;SHT30;61850;54.980;73.298;2022-10-16T05:05:06;13.26;57.03
73570;SHT30;61850;54.980;73.298;2022-10-16T05:07:42;13.24;56.40
73570;SHT30;61850;54.980;73.298;2022-10-16T05:10:08;13.44;56.03
73570;SHT30;61850;54.980;73.298;2022-10-16T05:12:34;13.53;55.40
73570;SHT30;61850;54.980;73.298;2022-10-16T05:15:00;13.38;55.21
73570;SHT30;61850;54.980;73.298;2022-10-16T05:17:26;13.61;53.99
73570;SHT30;61850;54.980;73.298;2022-10-16T05:19:52;13.68;53.34
73570;SHT30;61850;54.980;73.298;2022-10-16T05:22:18;13.59;53.75
73570;SHT30;61850;54.980;73.298;2022-10-16T05:24:44;13.48;53.41
73570;SHT30;61850;54.980;73.298;2022-10-16T05:27:10;13.36;53.75
73570;SHT30;61850;54.980;73.298;2022-10-16T05:29:45;13.34;53.64
73570;SHT30;61850;54.980;73.298;2022-10-16T05:32:14;13.28;53.60
73570;SHT30;61850;54.980;73.298;2022-10-16T05:34:43;13.34;53.97
73570;SHT30;61850;54.980;73.298;2022-10-16T05:37:09;13.37;53.82
73570;SHT30;61850;54.980;73.298;2022-10-16T05:39:37;13.26;54.43
73570;SHT30;61850;54.980;73.298;2022-10-16T05:42:03;13.28;54.45
73570;SHT30;61850;54.980;73.298;2022-10-16T05:44:29;13.26;54.44
73570;SHT30;61850;54.980;73.298;2022-10-16T05:46:55;13.06;54.55
73570;SHT30;61850;54.980;73.298;2022-10-16T05:49:21;13.10;54.81
73570;SHT30;61850;54.980;73.298;2022-10-16T05:51:47;13.20;54.55
73570;SHT30;61850;54.980;73.298;2022-10-16T05:54:13;13.16;54.78
73570;SHT30;61850;54.980;73.298;2022-10-16T05:56:39;13.16;54.69
73570;SHT30;61850;54.980;73.298;2022-10-16T05:59:05;13.14;54.49
73570;SHT30;61850;54.980;73.298;2022-10-16T06:01:35;13.20;55.17
73570;SHT30;61850;54.980;73.298;2022-10-16T06:04:01;13.21;55.30
73570;SHT30;61850;54.980;73.298;2022-10-16T06:06:27;13.24;55.05
73570;SHT30;61850;54.980;73.298;2022-10-16T06:08:55;13.16;55.39
73570;SHT30;61850;54.980;73.298;2022-10-16T06:11:22;13.07;55.31
73570;SHT30;61850;54.980;73.298;2022-10-16T06:13:51;13.06;55.50
73570;SHT30;61850;54.980;73.298;2022-10-16T06:16:19;13.06;55.22
73570;SHT30;61850;54.980;73.298;2022-10-16T06:18:45;13.14;55.46
73570;SHT30;61850;54.980;73.298;2022-10-16T06:21:23;12.97;55.33
73570;SHT30;61850;54.980;73.298;2022-10-16T06:23:50;13.04;55.38
73570;SHT30;61850;54.980;73.298;2022-10-16T06:26:27;13.02;56.19
73570;SHT30;61850;54.980;73.298;2022-10-16T06:29:00;12.93;57.11
73570;SHT30;61850;54.980;73.298;2022-10-16T06:31:27;12.93;57.24
73570;SHT30;61850;54.980;73.298;2022-10-16T06:33:56;13.20;56.85
73570;SHT30;61850;54.980;73.298;2022-10-16T06:36:23;13.31;56.44
73570;SHT30;61850;54.980;73.298;2022-10-16T06:38:49;13.28;56.66
73570;SHT30;61850;54.980;73.298;2022-10-16T06:41:16;13.37;56.53
73570;SHT30;61850;54.980;73.298;2022-10-16T06:43:42;13.11;56.88
73570;SHT30;61850;54.980;73.298;2022-10-16T06:46:11;13.20;57.20
73570;SHT30;61850;54.980;73.298;2022-10-16T06:48:37;13.30;57.35
73570;SHT30;61850;54.980;73.298;2022-10-16T06:51:04;13.44;56.68
73570;SHT30;61850;54.980;73.298;2022-10-16T06:53:31;13.58;56.46
73570;SHT30;61850;54.980;73.298;2022-10-16T06:56:16;13.66;56.40
73570;SHT30;61850;54.980;73.298;2022-10-16T06:58:43;13.68;56.90
73570;SHT30;61850;54.980;73.298;2022-10-16T07:01:09;13.65;57.10
73570;SHT30;61850;54.980;73.298;2022-10-16T07:03:36;13.65;57.53
73570;SHT30;61850;54.980;73.298;2022-10-16T07:06:09;13.81;57.30
73570;SHT30;61850;54.980;73.298;2022-10-16T07:08:36;13.82;57.36
73570;SHT30;61850;54.980;73.298;2022-10-16T07:11:04;13.79;57.34
73570;SHT30;61850;54.980;73.298;2022-10-16T07:13:32;13.85;57.21
73570;SHT30;61850;54.980;73.298;2022-10-16T07:16:03;13.99;57.12
73570;SHT30;61850;54.980;73.298;2022-10-16T07:18:32;14.03;57.17
73570;SHT30;61850;54.980;73.298;2022-10-16T07:21:07;14.15;56.74
73570;SHT30;61850;54.980;73.298;2022-10-16T07:23:34;14.17;56.35
73570;SHT30;61850;54.980;73.298;2022-10-16T07:26:05;14.08;56.78
73570;SHT30;61850;54.980;73.298;2022-10-16T07:28:32;14.10;56.99
73570;SHT30;61850;54.980;73.298;2022-10-16T07:31:09;14.27;56.40
73570;SHT30;61850;54.980;73.298;2022-10-16T07:33:36;14.15;56.90
73570;SHT30;61850;54.980;73.298;2022-10-16T07:36:03;14.17;56.84
73570;SHT30;61850;54.980;73.298;2022-10-16T07:38:29;14.13;56.94
73570;SHT30;61850;54.980;73.298;2022-10-16T07:41:15;14.26;56.89
73570;SHT30;61850;54.980;73.298;2022-10-16T07:43:46;14.36;56.74
73570;SHT30;61850;54.980;73.298;2022-10-16T07:46:13;14.51;56.51
73570;SHT30;61850;54.980;73.298;2022-10-16T07:48:40;14.72;56.11
73570;SHT30;61850;54.980;73.298;2022-10-16T07:51:11;14.68;56.45
73570;SHT30;61850;54.980;73.298;2022-10-16T07:53:37;14.72;56.58
73570;SHT30;61850;54.980;73.298;2022-10-16T07:56:04;14.61;56.87
73570;SHT30;61850;54.980;73.298;2022-10-16T07:58:35;14.85;56.26
73570;SHT30;61850;54.980;73.298;2022-10-16T08:01:03;15.01;55.64
73570;SHT30;61850;54.980;73.298;2022-10-16T08:03:31;15.09;55.67
73570;SHT30;61850;54.980;73.298;2022-10-16T08:05:57;15.26;55.22
73570;SHT30;61850;54.980;73.298;2022-10-16T08:08:24;15.06;55.37
73570;SHT30;61850;54.980;73.298;2022-10-16T08:10:50;15.13;55.48
73570;SHT30;61850;54.980;73.298;2022-10-16T08:13:17;15.16;55.08
73570;SHT30;61850;54.980;73.298;2022-10-16T08:15:46;15.21;55.08
73570;SHT30;61850;54.980;73.298;2022-10-16T08:18:13;15.42;54.71
73570;SHT30;61850;54.980;73.298;2022-10-16T08:20:40;15.36;54.70
73570;SHT30;61850;54.980;73.298;2022-10-16T08:23:09;15.38;54.82
73570;SHT30;61850;54.980;73.298;2022-10-16T08:25:35;15.23;55.20
73570;SHT30;61850;54.980;73.298;2022-10-16T08:28:12;15.36;55.03
73570;SHT30;61850;54.980;73.298;2022-10-16T08:30:38;15.30;55.13
73570;SHT30;61850;54.980;73.298;2022-10-16T08:33:05;15.46;54.96
73570;SHT30;61850;54.980;73.298;2022-10-16T08:35:32;15.76;54.33
73570;SHT30;61850;54.980;73.298;2022-10-16T08:37:57;16.02;53.94
73570;SHT30;61850;54.980;73.298;2022-10-16T08:40:29;15.76;54.01
73570;SHT30;61850;54.980;73.298;2022-10-16T08:48:30;15.43;55.25
73570;SHT30;61850;54.980;73.298;2022-10-16T08:51:01;15.30;55.44
73570;SHT30;61850;54.980;73.298;2022-10-16T08:53:44;15.28;55.45
73570;SHT30;61850;54.980;73.298;2022-10-16T08:56:12;14.92;56.64
73570;SHT30;61850;54.980;73.298;2022-10-16T08:58:38;14.77;57.49
73570;SHT30;61850;54.980;73.298;2022-10-16T09:01:04;14.72;57.57
73570;SHT30;61850;54.980;73.298;2022-10-16T09:06:16;14.74;57.83
73570;SHT30;61850;54.980;73.298;2022-10-16T09:16:36;14.92;57.79
73570;SHT30;61850;54.980;73.298;2022-10-16T09:21:33;14.93;58.06
73570;SHT30;61850;54.980;73.298;2022-10-16T09:24:09;14.89;58.19
73570;SHT30;61850;54.980;73.298;2022-10-16T09:26:36;14.75;58.60
73570;SHT30;61850;54.980;73.298;2022-10-16T09:29:16;14.67;58.86
73570;SHT30;61850;54.980;73.298;2022-10-16T09:31:45;14.50;59.36
73570;SHT30;61850;54.980;73.298;2022-10-16T09:34:32;14.44;58.79
73570;SHT30;61850;54.980;73.298;2022-10-16T09:36:58;14.13;59.86
73570;SHT30;61850;54.980;73.298;2022-10-16T09:39:30;14.10;60.01
73570;SHT30;61850;54.980;73.298;2022-10-16T09:41:56;14.08;60.30
73570;SHT30;61850;54.980;73.298;2022-10-16T09:47:12;13.87;60.85
73570;SHT30;61850;54.980;73.298;2022-10-16T09:49:49;13.85;61.37
73570;SHT30;61850;54.980;73.298;2022-10-16T09:52:19;13.82;61.51
73570;SHT30;61850;54.980;73.298;2022-10-16T09:54:51;13.85;61.56
73570;SHT30;61850;54.980;73.298;2022-10-16T09:57:18;14.33;60.79
73570;SHT30;61850;54.980;73.298;2022-10-16T09:59:54;14.29;61.06
73570;SHT30;61850;54.980;73.298;2022-10-16T10:02:30;14.44;60.85
73570;SHT30;61850;54.980;73.298;2022-10-16T10:04:57;14.33;60.98
73570;SHT30;61850;54.980;73.298;2022-10-16T10:07:24;14.38;61.41
73570;SHT30;61850;54.980;73.298;2022-10-16T10:09:51;14.45;60.72
73570;SHT30;61850;54.980;73.298;2022-10-16T10:12:28;14.30;61.67
73570;SHT30;61850;54.980;73.298;2022-10-16T10:14:55;14.22;61.61
73570;SHT30;61850;54.980;73.298;2022-10-16T10:17:24;14.50;61.47
73570;SHT30;61850;54.980;73.298;2022-10-16T10:19:54;14.51;61.21
73570;SHT30;61850;54.980;73.298;2022-10-16T10:22:41;14.40;61.76
73570;SHT30;61850;54.980;73.298;2022-10-16T10:30:20;13.87;63.63
73570;SHT30;61850;54.980;73.298;2022-10-16T10:35:43;13.62;64.55
73570;SHT30;61850;54.980;73.298;2022-10-16T10:45:55;12.92;68.61
73570;SHT30;61850;54.980;73.298;2022-10-16T10:53:41;12.75;67.65
73570;SHT30;61850;54.980;73.298;2022-10-16T11:01:10;12.68;67.65
73570;SHT30;61850;54.980;73.298;2022-10-16T11:06:32;12.66;67.43
73570;SHT30;61850;54.980;73.298;2022-10-16T11:11:51;12.60;67.48
73570;SHT30;61850;54.980;73.298;2022-10-16T11:14:19;12.53;67.52
73570;SHT30;61850;54.980;73.298;2022-10-16T11:16:48;12.53;67.39
73570;SHT30;61850;54.980;73.298;2022-10-16T11:19:28;12.53;67.37
73570;SHT30;61850;54.980;73.298;2022-10-16T11:22:01;12.51;67.34
73570;SHT30;61850;54.980;73.298;2022-10-16T11:24:45;12.55;67.17
73570;SHT30;61850;54.980;73.298;2022-10-16T11:27:14;12.56;67.17
73570;SHT30;61850;54.980;73.298;2022-10-16T11:29:50;12.59;67.07
73570;SHT30;61850;54.980;73.298;2022-10-16T11:32:31;12.55;67.15
73570;SHT30;61850;54.980;73.298;2022-10-16T11:35:11;12.49;67.29
73570;SHT30;61850;54.980;73.298;2022-10-16T11:37:42;12.39;67.49
73570;SHT30;61850;54.980;73.298;2022-10-16T11:40:22;12.39;67.68
73570;SHT30;61850;54.980;73.298;2022-10-16T11:45:37;12.49;66.16
73570;SHT30;61850;54.980;73.298;2022-10-16T11:48:15;12.52;66.71
73570;SHT30;61850;54.980;73.298;2022-10-16T11:50:48;12.52;66.60
73570;SHT30;61850;54.980;73.298;2022-10-16T11:55:44;12.46;67.00
73570;SHT30;61850;54.980;73.298;2022-10-16T12:03:36;12.31;67.44
73570;SHT30;61850;54.980;73.298;2022-10-16T12:06:13;12.30;67.42
73570;SHT30;61850;54.980;73.298;2022-10-16T12:08:41;12.31;67.71
73570;SHT30;61850;54.980;73.298;2022-10-16T12:11:54;12.22;68.19
73570;SHT30;61850;54.980;73.298;2022-10-16T12:16:59;12.17;68.87
73570;SHT30;61850;54.980;73.298;2022-10-16T12:19:26;12.17;68.89
73570;SHT30;61850;54.980;73.298;2022-10-16T12:21:57;12.10;69.32
73570;SHT30;61850;54.980;73.298;2022-10-16T12:24:30;12.05;69.55
73570;SHT30;61850;54.980;73.298;2022-10-16T12:26:56;12.03;69.80
73570;SHT30;61850;54.980;73.298;2022-10-16T12:29:33;11.97;70.12
73570;SHT30;61850;54.980;73.298;2022-10-16T12:32:00;11.91;70.19
73570;SHT30;61850;54.980;73.298;2022-10-16T12:34:28;11.97;69.98
73570;SHT30;61850;54.980;73.298;2022-10-16T12:36:55;11.97;69.80
73570;SHT30;61850;54.980;73.298;2022-10-16T12:39:34;12.00;69.80
73570;SHT30;61850;54.980;73.298;2022-10-16T12:42:03;11.98;69.88
73570;SHT30;61850;54.980;73.298;2022-10-16T12:44:40;12.01;69.81
73570;SHT30;61850;54.980;73.298;2022-10-16T12:47:18;12.00;69.82
73570;SHT30;61850;54.980;73.298;2022-10-16T12:49:48;12.01;69.71
73570;SHT30;61850;54.980;73.298;2022-10-16T12:55:18;12.04;69.48
73570;SHT30;61850;54.980;73.298;2022-10-16T13:11:42;11.93;70.04
73570;SHT30;61850;54.980;73.298;2022-10-16T13:14:16;11.93;70.19
73570;SHT30;61850;54.980;73.298;2022-10-16T13:22:33;11.74;71.51
73570;SHT30;61850;54.980;73.298;2022-10-16T13:27:55;11.62;72.00
73570;SHT30;61850;54.980;73.298;2022-10-16T13:30:43;11.58;71.98
73570;SHT30;61850;54.980;73.298;2022-10-16T13:33:16;11.55;72.05
73570;SHT30;61850;54.980;73.298;2022-10-16T13:35:51;11.53;72.15
73570;SHT30;61850;54.980;73.298;2022-10-16T13:38:22;11.53;72.21
73570;SHT30;61850;54.980;73.298;2022-10-16T13:40:54;11.47;72.50
73570;SHT30;61850;54.980;73.298;2022-10-16T13:46:06;11.35;73.07
73570;SHT30;61850;54.980;73.298;2022-10-16T13:48:40;11.38;72.81
73570;SHT30;61850;54.980;73.298;2022-10-16T13:53:38;11.35;72.75
73570;SHT30;61850;54.980;73.298;2022-10-16T13:56:13;11.31;72.88
73570;SHT30;61850;54.980;73.298;2022-10-16T13:58:40;11.28;73.12
73570;SHT30;61850;54.980;73.298;2022-10-16T14:01:22;11.26;73.13
73570;SHT30;61850;54.980;73.298;2022-10-16T14:03:49;11.32;72.81
73570;SHT30;61850;54.980;73.298;2022-10-16T14:06:17;11.29;72.73
73570;SHT30;61850;54.980;73.298;2022-10-16T14:09:11;11.21;73.10
73570;SHT30;61850;54.980;73.298;2022-10-16T14:12:29;11.12;73.68
73570;SHT30;61850;54.980;73.298;2022-10-16T14:14:55;11.04;73.89
73570;SHT30;61850;54.980;73.298;2022-10-16T14:17:27;11.11;73.50
73570;SHT30;61850;54.980;73.298;2022-10-16T14:19:54;11.10;73.84
73570;SHT30;61850;54.980;73.298;2022-10-16T14:22:32;11.04;73.79
73570;SHT30;61850;54.980;73.298;2022-10-16T14:24:59;10.97;74.06
73570;SHT30;61850;54.980;73.298;2022-10-16T14:30:19;10.84;74.41
73570;SHT30;61850;54.980;73.298;2022-10-16T14:33:02;10.83;74.32
73570;SHT30;61850;54.980;73.298;2022-10-16T14:35:31;10.81;74.33
73570;SHT30;61850;54.980;73.298;2022-10-16T14:38:03;10.73;74.43
73570;SHT30;61850;54.980;73.298;2022-10-16T14:40:31;10.66;74.91
73570;SHT30;61850;54.980;73.298;2022-10-16T14:42:58;10.60;75.47
73570;SHT30;61850;54.980;73.298;2022-10-16T14:45:26;10.52;75.69
73570;SHT30;61850;54.980;73.298;2022-10-16T14:47:54;10.50;75.89
73570;SHT30;61850;54.980;73.298;2022-10-16T14:50:21;10.50;75.90
73570;SHT30;61850;54.980;73.298;2022-10-16T14:52:48;10.49;75.73
73570;SHT30;61850;54.980;73.298;2022-10-16T14:55:15;10.47;75.74
73570;SHT30;61850;54.980;73.298;2022-10-16T14:57:42;10.40;76.15
73570;SHT30;61850;54.980;73.298;2022-10-16T15:00:16;10.30;76.51
73570;SHT30;61850;54.980;73.298;2022-10-16T15:02:44;10.18;76.95
73570;SHT30;61850;54.980;73.298;2022-10-16T15:05:12;10.13;77.02
73570;SHT30;61850;54.980;73.298;2022-10-16T15:07:44;10.12;77.34
73570;SHT30;61850;54.980;73.298;2022-10-16T15:10:18;10.03;77.33
73570;SHT30;61850;54.980;73.298;2022-10-16T15:12:45;9.97;77.59
73570;SHT30;61850;54.980;73.298;2022-10-16T15:17:43;10.05;77.12
73570;SHT30;61850;54.980;73.298;2022-10-16T15:20:09;9.98;77.13
73570;SHT30;61850;54.980;73.298;2022-10-16T15:22:35;10.02;76.74
73570;SHT30;61850;54.980;73.298;2022-10-16T15:25:04;9.99;76.40
73570;SHT30;61850;54.980;73.298;2022-10-16T15:27:33;10.03;76.17
73570;SHT30;61850;54.980;73.298;2022-10-16T15:30:17;10.03;75.71
73570;SHT30;61850;54.980;73.298;2022-10-16T15:32:44;10.06;77.06
73570;SHT30;61850;54.980;73.298;2022-10-16T15:35:16;10.09;75.13
73570;SHT30;61850;54.980;73.298;2022-10-16T15:37:52;10.12;74.85
73570;SHT30;61850;54.980;73.298;2022-10-16T15:40:28;10.09;74.81
73570;SHT30;61850;54.980;73.298;2022-10-16T15:42:55;10.13;74.58
73570;SHT30;61850;54.980;73.298;2022-10-16T15:45:22;10.16;74.20
73570;SHT30;61850;54.980;73.298;2022-10-16T15:47:54;10.12;73.95
73570;SHT30;61850;54.980;73.298;2022-10-16T15:50:20;10.09;73.95
73570;SHT30;61850;54.980;73.298;2022-10-16T15:52:46;10.09;73.40
73570;SHT30;61850;54.980;73.298;2022-10-16T15:55:13;9.91;74.02
73570;SHT30;61850;54.980;73.298;2022-10-16T15:57:45;9.73;74.97
73570;SHT30;61850;54.980;73.298;2022-10-16T16:00:12;9.60;75.84
73570;SHT30;61850;54.980;73.298;2022-10-16T16:02:41;9.55;75.65
73570;SHT30;61850;54.980;73.298;2022-10-16T16:05:09;9.58;75.41
73570;SHT30;61850;54.980;73.298;2022-10-16T16:10:32;9.62;75.44
73570;SHT30;61850;54.980;73.298;2022-10-16T16:13:02;9.67;75.49
73570;SHT30;61850;54.980;73.298;2022-10-16T16:21:20;9.77;74.65
73570;SHT30;61850;54.980;73.298;2022-10-16T16:23:47;9.81;74.40
73570;SHT30;61850;54.980;73.298;2022-10-16T16:32:28;9.87;74.25
73570;SHT30;61850;54.980;73.298;2022-10-16T16:34:54;9.82;74.32
73570;SHT30;61850;54.980;73.298;2022-10-16T16:37:20;9.88;74.22
73570;SHT30;61850;54.980;73.298;2022-10-16T16:39:46;9.94;74.01
73570;SHT30;61850;54.980;73.298;2022-10-16T16:42:18;10.01;73.76
73570;SHT30;61850;54.980;73.298;2022-10-16T16:44:44;10.12;73.52
73570;SHT30;61850;54.980;73.298;2022-10-16T16:47:10;10.08;73.54
73570;SHT30;61850;54.980;73.298;2022-10-16T16:49:46;10.03;73.66
73570;SHT30;61850;54.980;73.298;2022-10-16T16:52:22;10.09;73.53
73570;SHT30;61850;54.980;73.298;2022-10-16T16:54:57;10.15;73.47
73570;SHT30;61850;54.980;73.298;2022-10-16T16:57:24;10.16;73.26
73570;SHT30;61850;54.980;73.298;2022-10-16T16:59:51;10.09;73.47
73570;SHT30;61850;54.980;73.298;2022-10-16T17:02:22;10.13;73.37
73570;SHT30;61850;54.980;73.298;2022-10-16T17:04:48;10.06;73.52
73570;SHT30;61850;54.980;73.298;2022-10-16T17:07:14;10.08;73.53
73570;SHT30;61850;54.980;73.298;2022-10-16T17:09:51;10.09;73.49
73570;SHT30;61850;54.980;73.298;2022-10-16T17:12:22;10.12;73.57
73570;SHT30;61850;54.980;73.298;2022-10-16T17:17:39;10.16;73.28
73570;SHT30;61850;54.980;73.298;2022-10-16T17:20:06;10.16;73.22
73570;SHT30;61850;54.980;73.298;2022-10-16T17:22:34;10.18;73.24
73570;SHT30;61850;54.980;73.298;2022-10-16T17:25:00;10.05;73.80
73570;SHT30;61850;54.980;73.298;2022-10-16T17:27:29;9.85;74.72
73570;SHT30;61850;54.980;73.298;2022-10-16T17:29:55;9.75;76.55
73570;SHT30;61850;54.980;73.298;2022-10-16T17:32:21;9.58;77.98
73570;SHT30;61850;54.980;73.298;2022-10-16T17:34:49;9.48;79.44
73570;SHT30;61850;54.980;73.298;2022-10-16T17:45:47;8.99;81.96
73570;SHT30;61850;54.980;73.298;2022-10-16T17:48:16;8.99;81.10
73570;SHT30;61850;54.980;73.298;2022-10-16T18:15:04;9.00;81.19
73570;SHT30;61850;54.980;73.298;2022-10-16T18:17:30;9.02;81.35
73570;SHT30;61850;54.980;73.298;2022-10-16T18:19:58;9.00;81.75
73570;SHT30;61850;54.980;73.298;2022-10-16T18:22:35;8.85;82.33
73570;SHT30;61850;54.980;73.298;2022-10-16T18:25:02;8.85;82.76
73570;SHT30;61850;54.980;73.298;2022-10-16T18:27:41;8.95;81.17
73570;SHT30;61850;54.980;73.298;2022-10-16T18:30:07;8.99;82.46
73570;SHT30;61850;54.980;73.298;2022-10-16T18:32:39;9.05;81.82